sensor_id;sensor_type;location;lat;lon;timestamp;P1;durP1;ratioP1;P2;durP2;ratioP2
27704;SDS011;15109;50.992;6.918;2022-12-18T00:01:57;15.75;;;4.97;;
27704;SDS011;15109;50.992;6.918;2022-12-18T00:05:21;8.88;;;3.50;;
27704;SDS011;15109;50.992;6.918;2022-12-18T00:08:43;10.65;;;4.88;;
27704;SDS011;15109;50.992;6.918;2022-12-18T00:12:04;12.57;;;4.55;;
27704;SDS011;15109;50.992;6.918;2022-12-18T00:15:26;10.10;;;4.05;;
27704;SDS011;15109;50.992;6.918;2022-12-18T00:19:08;13.25;;;5.43;;
27704;SDS011;15109;50.992;6.918;2022-12-18T00:22:29;7.43;;;3.60;;
27704;SDS011;15109;50.992;6.918;2022-12-18T00:25:50;7.57;;;4.00;;
27704;SDS011;15109;50.992;6.918;2022-12-18T00:29:13;12.35;;;4.68;;
27704;SDS011;15109;50.992;6.918;2022-12-18T00:32:34;11.27;;;4.97;;
27704;SDS011;15109;50.992;6.918;2022-12-18T00:39:24;9.73;;;4.55;;
27704;SDS011;15109;50.992;6.918;2022-12-18T00:42:45;8.70;;;4.15;;
27704;SDS011;15109;50.992;6.918;2022-12-18T00:46:18;8.27;;;4.40;;
27704;SDS011;15109;50.992;6.918;2022-12-18T00:49:39;9.68;;;4.00;;
27704;SDS011;15109;50.992;6.918;2022-12-18T00:53:00;8.80;;;4.07;;
27704;SDS011;15109;50.992;6.918;2022-12-18T00:56:21;12.43;;;5.10;;
27704;SDS011;15109;50.992;6.918;2022-12-18T00:59:42;9.93;;;5.55;;
27704;SDS011;15109;50.992;6.918;2022-12-18T01:03:03;12.27;;;5.03;;
27704;SDS011;15109;50.992;6.918;2022-12-18T01:06:25;8.23;;;3.85;;
27704;SDS011;15109;50.992;6.918;2022-12-18T01:09:46;9.73;;;4.38;;
27704;SDS011;15109;50.992;6.918;2022-12-18T01:13:07;7.32;;;3.60;;
27704;SDS011;15109;50.992;6.918;2022-12-18T01:16:29;10.50;;;4.60;;
27704;SDS011;15109;50.992;6.918;2022-12-18T01:19:51;9.35;;;4.13;;
27704;SDS011;15109;50.992;6.918;2022-12-18T01:23:12;8.50;;;4.18;;
27704;SDS011;15109;50.992;6.918;2022-12-18T01:26:33;10.07;;;4.05;;
27704;SDS011;15109;50.992;6.918;2022-12-18T01:29:54;11.43;;;4.65;;
27704;SDS011;15109;50.992;6.918;2022-12-18T01:33:15;10.10;;;4.32;;
27704;SDS011;15109;50.992;6.918;2022-12-18T01:36:36;11.52;;;5.03;;
27704;SDS011;15109;50.992;6.918;2022-12-18T01:39:59;7.88;;;4.38;;
27704;SDS011;15109;50.992;6.918;2022-12-18T01:43:20;9.18;;;4.25;;
27704;SDS011;15109;50.992;6.918;2022-12-18T01:46:41;6.75;;;3.60;;
27704;SDS011;15109;50.992;6.918;2022-12-18T01:50:05;8.60;;;4.03;;
27704;SDS011;15109;50.992;6.918;2022-12-18T01:53:36;9.85;;;5.07;;
27704;SDS011;15109;50.992;6.918;2022-12-18T01:56:57;8.63;;;4.03;;
27704;SDS011;15109;50.992;6.918;2022-12-18T02:00:20;8.30;;;4.13;;
27704;SDS011;15109;50.992;6.918;2022-12-18T02:03:43;8.60;;;3.75;;
27704;SDS011;15109;50.992;6.918;2022-12-18T02:17:54;9.68;;;4.57;;
27704;SDS011;15109;50.992;6.918;2022-12-18T02:28:30;7.30;;;3.83;;
27704;SDS011;15109;50.992;6.918;2022-12-18T02:32:02;9.02;;;4.47;;
27704;SDS011;15109;50.992;6.918;2022-12-18T02:35:29;14.88;;;4.68;;
27704;SDS011;15109;50.992;6.918;2022-12-18T02:38:53;8.00;;;3.60;;
27704;SDS011;15109;50.992;6.918;2022-12-18T02:42:16;9.80;;;4.18;;
27704;SDS011;15109;50.992;6.918;2022-12-18T02:45:46;6.68;;;3.30;;
27704;SDS011;15109;50.992;6.918;2022-12-18T02:53:11;8.32;;;4.00;;
27704;SDS011;15109;50.992;6.918;2022-12-18T02:56:54;7.90;;;4.13;;
27704;SDS011;15109;50.992;6.918;2022-12-18T03:00:18;7.82;;;4.35;;
27704;SDS011;15109;50.992;6.918;2022-12-18T03:03:47;7.40;;;3.70;;
27704;SDS011;15109;50.992;6.918;2022-12-18T03:07:11;7.67;;;3.07;;
27704;SDS011;15109;50.992;6.918;2022-12-18T03:10:42;11.07;;;4.07;;
27704;SDS011;15109;50.992;6.918;2022-12-18T03:14:09;10.02;;;4.50;;
27704;SDS011;15109;50.992;6.918;2022-12-18T03:17:34;6.90;;;3.83;;
27704;SDS011;15109;50.992;6.918;2022-12-18T03:20:58;6.97;;;3.55;;
27704;SDS011;15109;50.992;6.918;2022-12-18T03:24:24;5.78;;;2.55;;
27704;SDS011;15109;50.992;6.918;2022-12-18T03:27:51;8.05;;;4.22;;
27704;SDS011;15109;50.992;6.918;2022-12-18T03:31:16;9.00;;;4.00;;
27704;SDS011;15109;50.992;6.918;2022-12-18T03:34:39;8.23;;;4.07;;
27704;SDS011;15109;50.992;6.918;2022-12-18T03:38:06;8.75;;;4.70;;
27704;SDS011;15109;50.992;6.918;2022-12-18T03:41:34;9.98;;;3.85;;
27704;SDS011;15109;50.992;6.918;2022-12-18T03:48:45;13.98;;;4.57;;
27704;SDS011;15109;50.992;6.918;2022-12-18T03:52:20;8.52;;;4.32;;
27704;SDS011;15109;50.992;6.918;2022-12-18T03:55:43;8.10;;;3.35;;
27704;SDS011;15109;50.992;6.918;2022-12-18T03:59:06;8.20;;;3.75;;
27704;SDS011;15109;50.992;6.918;2022-12-18T04:02:32;8.38;;;3.70;;
27704;SDS011;15109;50.992;6.918;2022-12-18T04:05:56;10.77;;;3.90;;
27704;SDS011;15109;50.992;6.918;2022-12-18T04:09:21;6.28;;;3.17;;
27704;SDS011;15109;50.992;6.918;2022-12-18T04:12:44;9.55;;;4.25;;
27704;SDS011;15109;50.992;6.918;2022-12-18T04:16:06;10.15;;;4.85;;
27704;SDS011;15109;50.992;6.918;2022-12-18T04:19:28;8.38;;;4.00;;
27704;SDS011;15109;50.992;6.918;2022-12-18T04:22:50;8.88;;;4.63;;
27704;SDS011;15109;50.992;6.918;2022-12-18T04:26:13;8.57;;;4.47;;
27704;SDS011;15109;50.992;6.918;2022-12-18T04:29:44;8.43;;;4.38;;
27704;SDS011;15109;50.992;6.918;2022-12-18T04:33:12;11.00;;;4.38;;
27704;SDS011;15109;50.992;6.918;2022-12-18T04:36:33;8.65;;;4.30;;
27704;SDS011;15109;50.992;6.918;2022-12-18T04:39:55;8.73;;;3.95;;
27704;SDS011;15109;50.992;6.918;2022-12-18T04:43:28;17.73;;;4.97;;
27704;SDS011;15109;50.992;6.918;2022-12-18T04:46:49;6.50;;;3.47;;
27704;SDS011;15109;50.992;6.918;2022-12-18T04:50:10;9.80;;;4.00;;
27704;SDS011;15109;50.992;6.918;2022-12-18T04:53:31;7.03;;;3.88;;
27704;SDS011;15109;50.992;6.918;2022-12-18T04:56:53;10.40;;;5.53;;
27704;SDS011;15109;50.992;6.918;2022-12-18T05:00:14;8.25;;;4.00;;
27704;SDS011;15109;50.992;6.918;2022-12-18T05:03:35;12.18;;;4.78;;
27704;SDS011;15109;50.992;6.918;2022-12-18T05:06:57;12.48;;;4.97;;
27704;SDS011;15109;50.992;6.918;2022-12-18T05:10:18;6.32;;;2.95;;
27704;SDS011;15109;50.992;6.918;2022-12-18T05:13:39;7.00;;;4.03;;
27704;SDS011;15109;50.992;6.918;2022-12-18T05:17:00;8.10;;;3.90;;
27704;SDS011;15109;50.992;6.918;2022-12-18T05:20:21;7.80;;;3.58;;
27704;SDS011;15109;50.992;6.918;2022-12-18T05:23:42;12.25;;;3.35;;
27704;SDS011;15109;50.992;6.918;2022-12-18T05:27:03;8.23;;;3.67;;
27704;SDS011;15109;50.992;6.918;2022-12-18T05:30:24;7.63;;;3.78;;
27704;SDS011;15109;50.992;6.918;2022-12-18T05:33:45;9.10;;;3.88;;
27704;SDS011;15109;50.992;6.918;2022-12-18T05:37:06;6.63;;;3.10;;
27704;SDS011;15109;50.992;6.918;2022-12-18T05:40:27;7.75;;;3.35;;
27704;SDS011;15109;50.992;6.918;2022-12-18T05:43:48;7.28;;;3.15;;
27704;SDS011;15109;50.992;6.918;2022-12-18T05:47:09;8.23;;;3.90;;
27704;SDS011;15109;50.992;6.918;2022-12-18T05:50:35;8.60;;;4.05;;
27704;SDS011;15109;50.992;6.918;2022-12-18T05:54:00;9.02;;;3.85;;
27704;SDS011;15109;50.992;6.918;2022-12-18T05:57:21;6.07;;;3.15;;
27704;SDS011;15109;50.992;6.918;2022-12-18T06:00:43;10.00;;;3.65;;
27704;SDS011;15109;50.992;6.918;2022-12-18T06:04:05;10.32;;;4.43;;
27704;SDS011;15109;50.992;6.918;2022-12-18T06:07:26;17.45;;;4.38;;
27704;SDS011;15109;50.992;6.918;2022-12-18T06:10:49;9.13;;;3.83;;
27704;SDS011;15109;50.992;6.918;2022-12-18T06:14:13;8.20;;;3.67;;
27704;SDS011;15109;50.992;6.918;2022-12-18T06:17:34;6.35;;;3.45;;
27704;SDS011;15109;50.992;6.918;2022-12-18T06:20:56;15.55;;;4.70;;
27704;SDS011;15109;50.992;6.918;2022-12-18T06:24:17;8.52;;;3.72;;
27704;SDS011;15109;50.992;6.918;2022-12-18T06:27:38;8.45;;;4.30;;
27704;SDS011;15109;50.992;6.918;2022-12-18T06:30:59;12.13;;;4.60;;
27704;SDS011;15109;50.992;6.918;2022-12-18T06:34:20;9.95;;;4.57;;
27704;SDS011;15109;50.992;6.918;2022-12-18T06:37:41;8.60;;;4.35;;
27704;SDS011;15109;50.992;6.918;2022-12-18T06:44:30;7.57;;;4.07;;
27704;SDS011;15109;50.992;6.918;2022-12-18T06:47:52;7.28;;;3.47;;
27704;SDS011;15109;50.992;6.918;2022-12-18T06:51:15;9.00;;;4.50;;
27704;SDS011;15109;50.992;6.918;2022-12-18T06:54:39;9.00;;;4.80;;
27704;SDS011;15109;50.992;6.918;2022-12-18T06:58:00;8.88;;;4.15;;
27704;SDS011;15109;50.992;6.918;2022-12-18T07:01:21;10.77;;;5.03;;
27704;SDS011;15109;50.992;6.918;2022-12-18T07:04:43;9.77;;;4.18;;
27704;SDS011;15109;50.992;6.918;2022-12-18T07:08:04;9.38;;;3.95;;
27704;SDS011;15109;50.992;6.918;2022-12-18T07:11:25;9.38;;;4.95;;
27704;SDS011;15109;50.992;6.918;2022-12-18T07:14:46;10.10;;;4.32;;
27704;SDS011;15109;50.992;6.918;2022-12-18T07:18:07;8.18;;;3.67;;
27704;SDS011;15109;50.992;6.918;2022-12-18T07:21:28;8.38;;;4.75;;
27704;SDS011;15109;50.992;6.918;2022-12-18T07:24:49;8.15;;;3.85;;
27704;SDS011;15109;50.992;6.918;2022-12-18T07:28:10;12.70;;;4.97;;
27704;SDS011;15109;50.992;6.918;2022-12-18T07:31:33;9.13;;;4.40;;
27704;SDS011;15109;50.992;6.918;2022-12-18T07:34:54;8.23;;;4.10;;
27704;SDS011;15109;50.992;6.918;2022-12-18T07:38:15;10.63;;;5.50;;
27704;SDS011;15109;50.992;6.918;2022-12-18T07:41:36;11.30;;;4.95;;
27704;SDS011;15109;50.992;6.918;2022-12-18T07:45:03;16.45;;;5.65;;
27704;SDS011;15109;50.992;6.918;2022-12-18T07:48:25;11.30;;;5.78;;
27704;SDS011;15109;50.992;6.918;2022-12-18T07:51:46;12.23;;;5.00;;
27704;SDS011;15109;50.992;6.918;2022-12-18T07:55:09;9.93;;;5.22;;
27704;SDS011;15109;50.992;6.918;2022-12-18T07:58:30;10.93;;;5.22;;
27704;SDS011;15109;50.992;6.918;2022-12-18T08:01:51;10.57;;;5.20;;
27704;SDS011;15109;50.992;6.918;2022-12-18T08:05:12;12.40;;;6.13;;
27704;SDS011;15109;50.992;6.918;2022-12-18T08:08:34;26.15;;;5.57;;
27704;SDS011;15109;50.992;6.918;2022-12-18T08:11:55;8.55;;;4.25;;
27704;SDS011;15109;50.992;6.918;2022-12-18T08:15:17;11.30;;;5.07;;
27704;SDS011;15109;50.992;6.918;2022-12-18T08:18:38;7.28;;;4.15;;
27704;SDS011;15109;50.992;6.918;2022-12-18T08:21:59;8.88;;;4.05;;
27704;SDS011;15109;50.992;6.918;2022-12-18T08:25:20;10.20;;;5.15;;
27704;SDS011;15109;50.992;6.918;2022-12-18T08:28:41;7.88;;;3.97;;
27704;SDS011;15109;50.992;6.918;2022-12-18T08:32:02;13.18;;;5.00;;
27704;SDS011;15109;50.992;6.918;2022-12-18T08:35:24;11.65;;;4.82;;
27704;SDS011;15109;50.992;6.918;2022-12-18T08:38:45;10.85;;;4.72;;
27704;SDS011;15109;50.992;6.918;2022-12-18T08:42:07;8.05;;;4.35;;
27704;SDS011;15109;50.992;6.918;2022-12-18T08:45:46;10.38;;;5.22;;
27704;SDS011;15109;50.992;6.918;2022-12-18T08:49:08;15.48;;;5.43;;
27704;SDS011;15109;50.992;6.918;2022-12-18T08:52:31;9.88;;;4.78;;
27704;SDS011;15109;50.992;6.918;2022-12-18T08:55:53;12.82;;;4.50;;
27704;SDS011;15109;50.992;6.918;2022-12-18T08:59:14;7.97;;;4.47;;
27704;SDS011;15109;50.992;6.918;2022-12-18T09:02:35;7.40;;;4.35;;
27704;SDS011;15109;50.992;6.918;2022-12-18T09:05:56;8.88;;;4.03;;
27704;SDS011;15109;50.992;6.918;2022-12-18T09:09:17;14.60;;;4.82;;
27704;SDS011;15109;50.992;6.918;2022-12-18T09:12:38;8.30;;;3.83;;
27704;SDS011;15109;50.992;6.918;2022-12-18T09:15:59;9.02;;;4.47;;
27704;SDS011;15109;50.992;6.918;2022-12-18T09:19:23;11.85;;;4.28;;
27704;SDS011;15109;50.992;6.918;2022-12-18T09:22:44;10.70;;;4.03;;
27704;SDS011;15109;50.992;6.918;2022-12-18T09:26:05;8.90;;;4.30;;
27704;SDS011;15109;50.992;6.918;2022-12-18T09:29:26;8.63;;;3.92;;
27704;SDS011;15109;50.992;6.918;2022-12-18T09:32:47;10.15;;;4.43;;
27704;SDS011;15109;50.992;6.918;2022-12-18T09:36:14;8.05;;;4.20;;
27704;SDS011;15109;50.992;6.918;2022-12-18T09:39:36;8.13;;;4.38;;
27704;SDS011;15109;50.992;6.918;2022-12-18T09:43:03;12.00;;;5.03;;
27704;SDS011;15109;50.992;6.918;2022-12-18T09:46:45;9.15;;;4.57;;
27704;SDS011;15109;50.992;6.918;2022-12-18T09:50:30;10.98;;;4.70;;
27704;SDS011;15109;50.992;6.918;2022-12-18T09:53:56;10.30;;;4.22;;
27704;SDS011;15109;50.992;6.918;2022-12-18T09:57:23;14.20;;;5.20;;
27704;SDS011;15109;50.992;6.918;2022-12-18T10:00:45;9.45;;;4.78;;
27704;SDS011;15109;50.992;6.918;2022-12-18T10:04:08;12.10;;;4.40;;
27704;SDS011;15109;50.992;6.918;2022-12-18T10:18:36;12.90;;;5.45;;
27704;SDS011;15109;50.992;6.918;2022-12-18T10:22:26;11.93;;;4.60;;
27704;SDS011;15109;50.992;6.918;2022-12-18T10:26:06;9.05;;;4.78;;
27704;SDS011;15109;50.992;6.918;2022-12-18T10:29:31;8.43;;;4.18;;
27704;SDS011;15109;50.992;6.918;2022-12-18T10:32:52;13.65;;;5.05;;
27704;SDS011;15109;50.992;6.918;2022-12-18T10:36:13;10.48;;;4.25;;
27704;SDS011;15109;50.992;6.918;2022-12-18T10:39:35;8.45;;;3.20;;
27704;SDS011;15109;50.992;6.918;2022-12-18T10:43:09;10.13;;;4.22;;
27704;SDS011;15109;50.992;6.918;2022-12-18T10:46:32;7.53;;;3.92;;
27704;SDS011;15109;50.992;6.918;2022-12-18T10:49:53;13.38;;;5.40;;
27704;SDS011;15109;50.992;6.918;2022-12-18T10:53:20;9.50;;;4.38;;
27704;SDS011;15109;50.992;6.918;2022-12-18T10:56:44;9.98;;;5.05;;
27704;SDS011;15109;50.992;6.918;2022-12-18T11:00:48;8.82;;;4.43;;
27704;SDS011;15109;50.992;6.918;2022-12-18T11:07:14;13.07;;;5.07;;
27704;SDS011;15109;50.992;6.918;2022-12-18T11:10:36;11.50;;;4.93;;
27704;SDS011;15109;50.992;6.918;2022-12-18T11:14:04;9.60;;;5.03;;
27704;SDS011;15109;50.992;6.918;2022-12-18T11:17:28;10.57;;;5.05;;
27704;SDS011;15109;50.992;6.918;2022-12-18T11:20:56;13.95;;;5.03;;
27704;SDS011;15109;50.992;6.918;2022-12-18T11:24:30;11.65;;;4.70;;
27704;SDS011;15109;50.992;6.918;2022-12-18T11:27:54;8.45;;;4.65;;
27704;SDS011;15109;50.992;6.918;2022-12-18T11:34:50;8.48;;;4.45;;
27704;SDS011;15109;50.992;6.918;2022-12-18T11:38:26;12.98;;;5.20;;
27704;SDS011;15109;50.992;6.918;2022-12-18T11:41:57;10.32;;;5.22;;
27704;SDS011;15109;50.992;6.918;2022-12-18T11:45:33;10.13;;;4.85;;
27704;SDS011;15109;50.992;6.918;2022-12-18T11:49:14;9.80;;;4.88;;
27704;SDS011;15109;50.992;6.918;2022-12-18T11:52:41;9.98;;;4.57;;
27704;SDS011;15109;50.992;6.918;2022-12-18T12:03:39;10.50;;;4.97;;
27704;SDS011;15109;50.992;6.918;2022-12-18T12:10:46;7.20;;;4.45;;
27704;SDS011;15109;50.992;6.918;2022-12-18T12:14:21;10.55;;;4.65;;
27704;SDS011;15109;50.992;6.918;2022-12-18T12:25:39;12.32;;;5.53;;
27704;SDS011;15109;50.992;6.918;2022-12-18T12:36:43;11.05;;;5.18;;
27704;SDS011;15109;50.992;6.918;2022-12-18T12:40:14;14.60;;;5.25;;
27704;SDS011;15109;50.992;6.918;2022-12-18T12:43:43;12.48;;;5.38;;
27704;SDS011;15109;50.992;6.918;2022-12-18T12:47:16;12.38;;;6.43;;
27704;SDS011;15109;50.992;6.918;2022-12-18T12:50:43;14.60;;;5.63;;
27704;SDS011;15109;50.992;6.918;2022-12-18T12:54:08;9.10;;;4.68;;
27704;SDS011;15109;50.992;6.918;2022-12-18T12:57:41;9.60;;;4.40;;
27704;SDS011;15109;50.992;6.918;2022-12-18T13:01:51;12.50;;;5.30;;
27704;SDS011;15109;50.992;6.918;2022-12-18T13:05:09;12.70;;;6.18;;
27704;SDS011;15109;50.992;6.918;2022-12-18T13:08:51;8.98;;;4.88;;
27704;SDS011;15109;50.992;6.918;2022-12-18T13:12:17;10.73;;;5.47;;
27704;SDS011;15109;50.992;6.918;2022-12-18T13:16:06;13.10;;;5.45;;
27704;SDS011;15109;50.992;6.918;2022-12-18T13:19:28;10.10;;;5.00;;
27704;SDS011;15109;50.992;6.918;2022-12-18T13:22:51;13.18;;;6.07;;
27704;SDS011;15109;50.992;6.918;2022-12-18T13:29:41;9.25;;;5.38;;
27704;SDS011;15109;50.992;6.918;2022-12-18T13:36:37;13.07;;;5.90;;
27704;SDS011;15109;50.992;6.918;2022-12-18T13:39:58;13.88;;;5.78;;
27704;SDS011;15109;50.992;6.918;2022-12-18T13:50:18;16.67;;;6.13;;
27704;SDS011;15109;50.992;6.918;2022-12-18T13:54:30;16.10;;;6.78;;
27704;SDS011;15109;50.992;6.918;2022-12-18T13:57:41;10.93;;;5.15;;
27704;SDS011;15109;50.992;6.918;2022-12-18T14:01:13;11.88;;;6.22;;
27704;SDS011;15109;50.992;6.918;2022-12-18T14:04:44;11.50;;;5.97;;
27704;SDS011;15109;50.992;6.918;2022-12-18T14:08:10;9.88;;;5.32;;
27704;SDS011;15109;50.992;6.918;2022-12-18T14:11:34;10.43;;;5.72;;
27704;SDS011;15109;50.992;6.918;2022-12-18T14:14:55;11.75;;;6.10;;
27704;SDS011;15109;50.992;6.918;2022-12-18T14:18:24;13.77;;;5.82;;
27704;SDS011;15109;50.992;6.918;2022-12-18T14:21:51;12.80;;;6.45;;
27704;SDS011;15109;50.992;6.918;2022-12-18T14:25:14;21.95;;;7.05;;
27704;SDS011;15109;50.992;6.918;2022-12-18T14:28:43;10.18;;;6.05;;
27704;SDS011;15109;50.992;6.918;2022-12-18T14:32:15;12.85;;;6.15;;
27704;SDS011;15109;50.992;6.918;2022-12-18T14:35:40;10.38;;;4.80;;
27704;SDS011;15109;50.992;6.918;2022-12-18T14:39:03;14.30;;;5.40;;
27704;SDS011;15109;50.992;6.918;2022-12-18T14:42:24;11.50;;;5.32;;
27704;SDS011;15109;50.992;6.918;2022-12-18T14:45:48;18.10;;;7.57;;
27704;SDS011;15109;50.992;6.918;2022-12-18T14:52:51;15.93;;;7.85;;
27704;SDS011;15109;50.992;6.918;2022-12-18T14:56:16;12.52;;;6.20;;
27704;SDS011;15109;50.992;6.918;2022-12-18T14:59:45;20.70;;;7.10;;
27704;SDS011;15109;50.992;6.918;2022-12-18T15:03:07;15.63;;;6.30;;
27704;SDS011;15109;50.992;6.918;2022-12-18T15:10:03;22.80;;;7.13;;
27704;SDS011;15109;50.992;6.918;2022-12-18T15:16:53;10.50;;;6.20;;
27704;SDS011;15109;50.992;6.918;2022-12-18T15:20:15;23.15;;;8.10;;
27704;SDS011;15109;50.992;6.918;2022-12-18T15:23:49;16.92;;;7.20;;
27704;SDS011;15109;50.992;6.918;2022-12-18T15:34:38;18.98;;;6.05;;
27704;SDS011;15109;50.992;6.918;2022-12-18T15:37:59;19.00;;;7.50;;
27704;SDS011;15109;50.992;6.918;2022-12-18T15:41:21;17.30;;;7.63;;
27704;SDS011;15109;50.992;6.918;2022-12-18T15:44:43;17.08;;;8.32;;
27704;SDS011;15109;50.992;6.918;2022-12-18T15:48:10;11.55;;;7.10;;
27704;SDS011;15109;50.992;6.918;2022-12-18T15:51:39;18.02;;;7.57;;
27704;SDS011;15109;50.992;6.918;2022-12-18T15:55:01;13.60;;;6.72;;
27704;SDS011;15109;50.992;6.918;2022-12-18T15:58:40;17.08;;;8.85;;
27704;SDS011;15109;50.992;6.918;2022-12-18T16:02:01;13.82;;;6.95;;
27704;SDS011;15109;50.992;6.918;2022-12-18T16:05:22;18.33;;;6.95;;
27704;SDS011;15109;50.992;6.918;2022-12-18T16:08:48;13.15;;;6.97;;
27704;SDS011;15109;50.992;6.918;2022-12-18T16:12:31;15.57;;;6.57;;
27704;SDS011;15109;50.992;6.918;2022-12-18T16:15:51;13.90;;;7.20;;
27704;SDS011;15109;50.992;6.918;2022-12-18T16:19:12;16.15;;;8.25;;
27704;SDS011;15109;50.992;6.918;2022-12-18T16:22:34;12.80;;;7.78;;
27704;SDS011;15109;50.992;6.918;2022-12-18T16:25:55;16.95;;;8.25;;
27704;SDS011;15109;50.992;6.918;2022-12-18T16:29:16;15.63;;;6.95;;
27704;SDS011;15109;50.992;6.918;2022-12-18T16:32:37;13.75;;;7.10;;
27704;SDS011;15109;50.992;6.918;2022-12-18T16:35:58;20.48;;;9.05;;
27704;SDS011;15109;50.992;6.918;2022-12-18T16:39:19;11.85;;;7.60;;
27704;SDS011;15109;50.992;6.918;2022-12-18T16:42:41;17.70;;;8.00;;
27704;SDS011;15109;50.992;6.918;2022-12-18T16:46:04;21.60;;;8.07;;
27704;SDS011;15109;50.992;6.918;2022-12-18T16:49:25;17.30;;;8.23;;
27704;SDS011;15109;50.992;6.918;2022-12-18T16:52:46;16.48;;;7.68;;
27704;SDS011;15109;50.992;6.918;2022-12-18T16:56:07;20.33;;;9.15;;
27704;SDS011;15109;50.992;6.918;2022-12-18T16:59:28;20.05;;;8.07;;
27704;SDS011;15109;50.992;6.918;2022-12-18T17:02:49;18.50;;;8.20;;
27704;SDS011;15109;50.992;6.918;2022-12-18T17:06:10;13.45;;;7.82;;
27704;SDS011;15109;50.992;6.918;2022-12-18T17:09:31;16.77;;;8.52;;
27704;SDS011;15109;50.992;6.918;2022-12-18T17:12:52;20.58;;;7.88;;
27704;SDS011;15109;50.992;6.918;2022-12-18T17:16:13;21.15;;;7.60;;
27704;SDS011;15109;50.992;6.918;2022-12-18T17:19:34;23.15;;;10.27;;
27704;SDS011;15109;50.992;6.918;2022-12-18T17:22:55;15.13;;;7.22;;
27704;SDS011;15109;50.992;6.918;2022-12-18T17:26:18;19.30;;;7.53;;
27704;SDS011;15109;50.992;6.918;2022-12-18T17:29:39;16.58;;;8.13;;
27704;SDS011;15109;50.992;6.918;2022-12-18T17:33:00;19.95;;;9.13;;
27704;SDS011;15109;50.992;6.918;2022-12-18T17:36:22;13.45;;;7.88;;
27704;SDS011;15109;50.992;6.918;2022-12-18T17:39:44;15.95;;;7.28;;
27704;SDS011;15109;50.992;6.918;2022-12-18T17:43:08;15.23;;;7.45;;
27704;SDS011;15109;50.992;6.918;2022-12-18T17:46:31;13.90;;;8.32;;
27704;SDS011;15109;50.992;6.918;2022-12-18T17:49:53;18.67;;;8.68;;
27704;SDS011;15109;50.992;6.918;2022-12-18T17:53:14;9.60;;;6.07;;
27704;SDS011;15109;50.992;6.918;2022-12-18T17:56:35;18.08;;;8.95;;
27704;SDS011;15109;50.992;6.918;2022-12-18T17:59:57;17.35;;;8.43;;
27704;SDS011;15109;50.992;6.918;2022-12-18T18:03:18;16.63;;;8.80;;
27704;SDS011;15109;50.992;6.918;2022-12-18T18:06:40;15.88;;;7.20;;
27704;SDS011;15109;50.992;6.918;2022-12-18T18:10:01;17.73;;;8.65;;
27704;SDS011;15109;50.992;6.918;2022-12-18T18:13:24;16.05;;;8.85;;
27704;SDS011;15109;50.992;6.918;2022-12-18T18:17:04;22.98;;;7.72;;
27704;SDS011;15109;50.992;6.918;2022-12-18T18:20:25;16.40;;;9.00;;
27704;SDS011;15109;50.992;6.918;2022-12-18T18:23:49;16.73;;;9.02;;
27704;SDS011;15109;50.992;6.918;2022-12-18T18:27:11;14.68;;;8.10;;
27704;SDS011;15109;50.992;6.918;2022-12-18T18:30:35;15.35;;;8.02;;
27704;SDS011;15109;50.992;6.918;2022-12-18T18:33:59;11.07;;;7.37;;
27704;SDS011;15109;50.992;6.918;2022-12-18T18:37:22;22.50;;;9.13;;
27704;SDS011;15109;50.992;6.918;2022-12-18T18:40:45;18.05;;;8.57;;
27704;SDS011;15109;50.992;6.918;2022-12-18T18:44:10;20.38;;;8.63;;
27704;SDS011;15109;50.992;6.918;2022-12-18T18:47:35;22.20;;;8.75;;
27704;SDS011;15109;50.992;6.918;2022-12-18T18:51:02;17.60;;;9.63;;
27704;SDS011;15109;50.992;6.918;2022-12-18T18:54:29;15.68;;;8.40;;
27704;SDS011;15109;50.992;6.918;2022-12-18T18:57:52;22.38;;;10.30;;
27704;SDS011;15109;50.992;6.918;2022-12-18T19:01:16;21.88;;;10.32;;
27704;SDS011;15109;50.992;6.918;2022-12-18T19:04:42;11.68;;;5.43;;
27704;SDS011;15109;50.992;6.918;2022-12-18T19:08:05;17.73;;;8.65;;
27704;SDS011;15109;50.992;6.918;2022-12-18T19:11:28;18.63;;;8.98;;
27704;SDS011;15109;50.992;6.918;2022-12-18T19:15:10;22.77;;;9.27;;
27704;SDS011;15109;50.992;6.918;2022-12-18T19:18:32;19.00;;;9.82;;
27704;SDS011;15109;50.992;6.918;2022-12-18T19:21:58;20.92;;;9.68;;
27704;SDS011;15109;50.992;6.918;2022-12-18T19:25:19;24.20;;;9.55;;
27704;SDS011;15109;50.992;6.918;2022-12-18T19:28:42;22.75;;;10.63;;
27704;SDS011;15109;50.992;6.918;2022-12-18T19:32:04;18.13;;;8.30;;
27704;SDS011;15109;50.992;6.918;2022-12-18T19:35:27;24.40;;;10.15;;
27704;SDS011;15109;50.992;6.918;2022-12-18T19:38:51;19.52;;;8.57;;
27704;SDS011;15109;50.992;6.918;2022-12-18T19:42:15;20.85;;;10.95;;
27704;SDS011;15109;50.992;6.918;2022-12-18T19:45:39;19.27;;;9.82;;
27704;SDS011;15109;50.992;6.918;2022-12-18T19:49:01;22.65;;;10.98;;
27704;SDS011;15109;50.992;6.918;2022-12-18T19:52:24;16.63;;;9.27;;
27704;SDS011;15109;50.992;6.918;2022-12-18T19:55:47;20.08;;;8.82;;
27704;SDS011;15109;50.992;6.918;2022-12-18T19:59:09;14.95;;;6.75;;
27704;SDS011;15109;50.992;6.918;2022-12-18T20:02:30;17.73;;;8.98;;
27704;SDS011;15109;50.992;6.918;2022-12-18T20:06:06;23.85;;;10.13;;
27704;SDS011;15109;50.992;6.918;2022-12-18T20:09:55;20.95;;;10.57;;
27704;SDS011;15109;50.992;6.918;2022-12-18T20:13:17;15.70;;;8.73;;
27704;SDS011;15109;50.992;6.918;2022-12-18T20:16:40;21.95;;;11.07;;
27704;SDS011;15109;50.992;6.918;2022-12-18T20:20:05;22.05;;;10.07;;
27704;SDS011;15109;50.992;6.918;2022-12-18T20:23:29;20.98;;;9.98;;
27704;SDS011;15109;50.992;6.918;2022-12-18T20:26:53;17.70;;;9.10;;
27704;SDS011;15109;50.992;6.918;2022-12-18T20:30:14;23.13;;;9.55;;
27704;SDS011;15109;50.992;6.918;2022-12-18T20:33:38;21.05;;;9.40;;
27704;SDS011;15109;50.992;6.918;2022-12-18T20:37:01;21.48;;;9.02;;
27704;SDS011;15109;50.992;6.918;2022-12-18T20:40:24;21.25;;;9.85;;
27704;SDS011;15109;50.992;6.918;2022-12-18T20:43:46;21.52;;;9.45;;
27704;SDS011;15109;50.992;6.918;2022-12-18T20:47:09;27.45;;;9.07;;
27704;SDS011;15109;50.992;6.918;2022-12-18T20:50:31;17.10;;;7.53;;
27704;SDS011;15109;50.992;6.918;2022-12-18T20:53:53;24.50;;;9.90;;
27704;SDS011;15109;50.992;6.918;2022-12-18T20:57:14;20.00;;;9.73;;
27704;SDS011;15109;50.992;6.918;2022-12-18T21:00:35;20.33;;;9.65;;
27704;SDS011;15109;50.992;6.918;2022-12-18T21:03:57;15.98;;;7.68;;
27704;SDS011;15109;50.992;6.918;2022-12-18T21:07:18;17.88;;;8.07;;
27704;SDS011;15109;50.992;6.918;2022-12-18T21:10:39;26.65;;;8.63;;
27704;SDS011;15109;50.992;6.918;2022-12-18T21:14:02;16.45;;;8.82;;
27704;SDS011;15109;50.992;6.918;2022-12-18T21:17:25;16.42;;;9.40;;
27704;SDS011;15109;50.992;6.918;2022-12-18T21:20:47;18.67;;;8.10;;
27704;SDS011;15109;50.992;6.918;2022-12-18T21:24:08;20.73;;;9.95;;
27704;SDS011;15109;50.992;6.918;2022-12-18T21:27:30;20.65;;;8.80;;
27704;SDS011;15109;50.992;6.918;2022-12-18T21:30:52;18.70;;;9.15;;
27704;SDS011;15109;50.992;6.918;2022-12-18T21:34:15;17.38;;;8.25;;
27704;SDS011;15109;50.992;6.918;2022-12-18T21:37:41;22.92;;;10.60;;
27704;SDS011;15109;50.992;6.918;2022-12-18T21:41:05;22.50;;;8.93;;
27704;SDS011;15109;50.992;6.918;2022-12-18T21:44:27;15.77;;;7.70;;
27704;SDS011;15109;50.992;6.918;2022-12-18T21:47:49;20.15;;;10.70;;
27704;SDS011;15109;50.992;6.918;2022-12-18T21:51:10;15.88;;;8.02;;
27704;SDS011;15109;50.992;6.918;2022-12-18T21:54:32;14.98;;;8.13;;
27704;SDS011;15109;50.992;6.918;2022-12-18T21:57:53;25.45;;;10.07;;
27704;SDS011;15109;50.992;6.918;2022-12-18T22:01:14;16.52;;;7.10;;
27704;SDS011;15109;50.992;6.918;2022-12-18T22:04:36;28.13;;;9.90;;
27704;SDS011;15109;50.992;6.918;2022-12-18T22:07:57;19.05;;;9.38;;